Details From MMMX - Licenciado Benito Juarez Intl
To MMTO - Licenciado Adolfo Lopez Mateos Intl
Flight Number -
Tags Generated
Created
Modified
Stats Distance 28 nm / 52 km
Max Altitude 0 ft / 0 m
Waypoints 2
Social Downloads 2
Likes 0
Share VATSIM

Download

Looking for another format? Having issues loading an existing format? Contact us
Advertisement - Login to hide

Notes

Generated

Route

MMMX MMTO

ID Type Via Altitude Latitude Longitude Leg Dist Tot Dist Heading (true) Name
O MMMX APT - 0 ft / 0 m 19.42701˚ -99.08585˚ - 0 nm - -
O MMTO APT - 0 ft / 0 m 19.35450˚ -99.57388˚ 27 nm 27 nm 261° / 261° -

Altitude Profile

Advertisement - Login to hide

MMMX

Details ICAO MMMX (MEX)
Name Licenciado Benito Juarez Intl
Region Mexico
Timezone America/Mexico_City (UTC-6.0)
Stats Elevation 7,316 ft / 2,230 m (AMSL)
Location 19.436308° -99.072104°
Runways 2
Magnetic Variation 4.649° E

METAR

MMMX 112039Z 13003KT 8SM FEW200 19/M14 A3033 NOSIG RMK 8/002 HZY

Decode

TAF

TAF MMMX 111131Z 1112/1218 06005KT P6SM SCT250 TX19/1121Z TNM01/1112Z FM111800 08010KT P6SM SCT250 FM120300 02005KT P6SM SCT250 FM121700 06010KT P6SM SCT250

Decode

Departure Runways

ID Width Length Bearing (true) Bearing (mag) Surface Threshold Offset Overrun Length
05L 148 ft / 45 m 12,951 ft / 3,948 m 59.25° 54.60° Asphalt 1,033 ft / 315 m 0 ft / 0 m
05R 148 ft / 45 m 12,800 ft / 3,902 m 59.26° 54.61° Asphalt 1,493 ft / 455 m 0 ft / 0 m
23L 148 ft / 45 m 12,800 ft / 3,902 m 239.28° 234.63° Asphalt 0 ft / 0 m 200 ft / 61 m
23R 148 ft / 45 m 12,951 ft / 3,948 m 239.27° 234.62° Asphalt 1,640 ft / 500 m 0 ft / 0 m

MMTO

Details ICAO MMTO (TLC)
Name Toluca Lic. Adolfo Lopez Mateos
Region Mexico
Timezone America/Mexico_City (UTC-6.0)
Stats Elevation 8,466 ft / 2,580 m (AMSL)
Location 19.337072° -99.566007°
Runways 1
Magnetic Variation 4.854° E

METAR

MMTO 112046Z 30005KT 7SM SCT200 20/M19 A3035 RMK SLP128 57036 967 8/002 FU

Decode

TAF

TAF MMTO 111131Z 1112/1218 30005KT 5SM HZ SCT250 TX17/1121Z TN06/1112Z FM111800 08010KT 6SM HZ SCT250 FM120300 06005KT 5SM HZ SCT250 FM121600 06008KT P6SM SCT250

Decode

Destination Runways

ID Width Length Bearing (true) Bearing (mag) Surface Threshold Offset Overrun Length
15 148 ft / 45 m 13,825 ft / 4,214 m 156.90° 152.05° Asphalt 0 ft / 0 m 194 ft / 59 m
33 148 ft / 45 m 13,825 ft / 4,214 m 336.91° 332.06° Asphalt 545 ft / 166 m 194 ft / 59 m

Approach Navaids

Runway Type Ident Frequency Range Bearing (true) Bearing (mag) Slope Elevation
15 Localiser ITLC 109.50 MHz 18 nm / 33 km 156.95° 152.10° - 8,466 ft / 2,580 m (AMSL)
15 Glidescope ITLC 109.50 MHz 10 nm / 19 km 156.91° 152.05° 3.00° 8,466 ft / 2,580 m (AMSL)
15 DME ITLC 109.50 MHz 18 nm / 33 km - - - 8,466 ft / 2,580 m (AMSL)

Popular Alternatives